Time;durP1;ratioP1;P1;durP2;ratioP2;P2;SDS_P1;SDS_P2;PMS_P1;PMS_P2;Temp;Humidity;BMP_temperature;BMP_pressure;BME280_temperature;BME280_humidity;BME280_pressure;Samples;Min_cycle;Max_cycle;Signal;HPM_P1;HPM_P2
2023/09/28 00:01:35;;;;;;;7.60;6.77;;;12.00;99.90;;;;;;5059271;28;20789;-80
2023/09/28 00:04:01;;;;;;;6.67;6.03;;;12.00;99.90;;;;;;5061766;28;20467;-80
2023/09/28 00:06:28;;;;;;;8.43;7.17;;;12.00;99.90;;;;;;5058193;28;20638;-81
2023/09/28 00:08:56;;;;;;;7.93;7.20;;;11.90;99.90;;;;;;5060383;28;20444;-80
2023/09/28 00:11:23;;;;;;;6.70;6.00;;;11.80;99.90;;;;;;5057171;28;20498;-80
2023/09/28 00:13:50;;;;;;;6.97;6.27;;;11.70;99.90;;;;;;5057934;28;20531;-80
2023/09/28 00:16:16;;;;;;;7.00;6.40;;;11.60;99.90;;;;;;5066996;28;20572;-85
2023/09/28 00:18:43;;;;;;;6.90;5.93;;;11.50;99.90;;;;;;5065606;28;20982;-83
2023/09/28 00:21:09;;;;;;;9.33;5.97;;;11.60;99.90;;;;;;5055831;28;20479;-81
2023/09/28 00:23:36;;;;;;;6.30;5.77;;;11.60;99.90;;;;;;5064227;28;20503;-81
2023/09/28 00:26:04;;;;;;;5.90;5.23;;;11.60;99.90;;;;;;5067254;28;20458;-81
2023/09/28 00:28:33;;;;;;;6.33;5.00;;;11.60;99.90;;;;;;5059107;28;20471;-82
2023/09/28 00:31:01;;;;;;;5.83;5.23;;;11.60;99.90;;;;;;5064043;28;20478;-80
2023/09/28 00:33:28;;;;;;;5.83;5.13;;;11.60;99.90;;;;;;5062446;28;20506;-81
2023/09/28 00:35:54;;;;;;;5.40;5.00;;;11.70;99.90;;;;;;5064584;28;20545;-81
2023/09/28 00:38:21;;;;;;;5.60;5.00;;;11.70;99.90;;;;;;5064940;28;20456;-82
2023/09/28 00:40:47;;;;;;;6.23;4.93;;;11.70;99.90;;;;;;5068339;28;20934;-84
2023/09/28 00:43:15;;;;;;;5.30;4.50;;;11.70;99.90;;;;;;5064741;28;20468;-81
2023/09/28 00:45:41;;;;;;;5.93;5.20;;;11.70;99.90;;;;;;5068048;28;20446;-82
2023/09/28 00:48:09;;;;;;;4.87;4.33;;;11.80;99.90;;;;;;5067125;28;20524;-80
2023/09/28 00:50:35;;;;;;;9.20;4.53;;;11.80;99.90;;;;;;5067557;28;20557;-85
2023/09/28 00:53:06;;;;;;;5.00;4.30;;;11.80;99.90;;;;;;5067577;28;21148;-82
2023/09/28 00:55:33;;;;;;;4.73;4.33;;;11.70;99.90;;;;;;5066025;28;20449;-81
2023/09/28 00:58:02;;;;;;;7.27;6.10;;;11.70;99.90;;;;;;5057509;28;20464;-81
2023/09/28 01:00:32;;;;;;;5.00;4.50;;;11.80;99.90;;;;;;5063483;28;20864;-81
2023/09/28 01:03:02;;;;;;;5.63;5.13;;;11.80;99.90;;;;;;5058897;28;20456;-82
2023/09/28 01:05:33;;;;;;;4.60;4.20;;;11.60;99.90;;;;;;5059563;28;20458;-82
2023/09/28 01:08:05;;;;;;;4.23;3.83;;;11.50;99.90;;;;;;5065836;28;20499;-82
2023/09/28 01:10:35;;;;;;;4.10;3.60;;;11.30;99.90;;;;;;5065033;28;21009;-82
2023/09/28 01:13:05;;;;;;;5.07;4.40;;;11.30;99.90;;;;;;5064144;28;21156;-84
2023/09/28 01:15:35;;;;;;;6.33;5.33;;;11.40;99.90;;;;;;5063532;28;20460;-80
2023/09/28 01:18:01;;;;;;;4.03;3.63;;;11.50;99.90;;;;;;5067821;28;20543;-82
2023/09/28 01:20:36;;;;;;;5.70;5.30;;;11.40;99.90;;;;;;5057905;28;20451;-81
2023/09/28 01:23:04;;;;;;;6.27;4.10;;;11.30;99.90;;;;;;5061883;28;20546;-81
2023/09/28 01:25:31;;;;;;;3.40;3.10;;;11.30;99.90;;;;;;5060559;28;20458;-85
2023/09/28 01:27:58;;;;;;;4.23;3.83;;;11.30;99.90;;;;;;5059719;28;20497;-82
2023/09/28 01:30:25;;;;;;;4.13;2.80;;;11.30;99.90;;;;;;5061042;28;20463;-81
2023/09/28 01:32:52;;;;;;;3.83;2.90;;;11.20;99.90;;;;;;5064080;28;20469;-84
2023/09/28 01:35:19;;;;;;;4.00;3.60;;;11.10;99.90;;;;;;5062511;28;20448;-85
2023/09/28 01:37:54;;;;;;;3.50;3.20;;;11.10;99.90;;;;;;5063510;28;20499;-84
2023/09/28 01:40:23;;;;;;;3.57;2.70;;;11.00;99.90;;;;;;5059494;28;20541;-81
2023/09/28 01:42:49;;;;;;;3.93;3.63;;;11.10;99.90;;;;;;5068212;28;20445;-80
2023/09/28 01:45:16;;;;;;;5.50;3.60;;;11.10;99.90;;;;;;5054967;28;20457;-79
2023/09/28 01:47:42;;;;;;;4.50;4.10;;;11.10;99.90;;;;;;5065870;28;20491;-80
2023/09/28 01:50:10;;;;;;;5.80;4.83;;;11.20;99.90;;;;;;5058090;28;20866;-81
2023/09/28 01:52:36;;;;;;;8.70;4.80;;;11.20;99.90;;;;;;5063646;28;20461;-80
2023/09/28 01:55:03;;;;;;;4.70;4.07;;;11.30;99.90;;;;;;5057289;28;20465;-80
2023/09/28 01:57:31;;;;;;;10.70;6.37;;;11.20;99.90;;;;;;5059027;28;21205;-83
2023/09/28 01:59:59;;;;;;;4.87;4.37;;;11.20;99.90;;;;;;5061148;28;20893;-81
2023/09/28 02:02:25;;;;;;;17.13;5.10;;;11.20;99.90;;;;;;5063490;28;20461;-82
2023/09/28 02:04:52;;;;;;;5.83;4.27;;;11.10;99.90;;;;;;5062026;28;20471;-80
2023/09/28 02:07:18;;;;;;;5.20;4.70;;;11.00;99.90;;;;;;5066890;28;20465;-80
2023/09/28 02:09:45;;;;;;;6.80;6.20;;;10.90;99.90;;;;;;5062969;28;20969;-81
2023/09/28 02:12:12;;;;;;;6.20;5.60;;;10.80;99.90;;;;;;5065526;28;20464;-81
2023/09/28 02:14:41;;;;;;;6.63;6.03;;;10.80;99.90;;;;;;5067391;28;20837;-84
2023/09/28 02:17:08;;;;;;;4.90;4.00;;;10.90;99.90;;;;;;5063966;28;20582;-84
2023/09/28 02:19:34;;;;;;;7.10;5.27;;;10.90;99.90;;;;;;5065398;28;20919;-80
2023/09/28 02:22:02;;;;;;;5.10;4.43;;;10.90;99.90;;;;;;5065312;28;20533;-81
2023/09/28 02:24:28;;;;;;;5.43;4.53;;;10.70;99.90;;;;;;5064558;28;20461;-84
2023/09/28 02:26:55;;;;;;;5.20;4.47;;;10.70;99.90;;;;;;5058919;28;20450;-80
2023/09/28 02:29:21;;;;;;;5.70;4.90;;;10.60;99.90;;;;;;5056167;28;20506;-78
2023/09/28 02:31:49;;;;;;;5.30;4.63;;;10.60;99.90;;;;;;5057917;28;20489;-82
2023/09/28 02:34:15;;;;;;;6.20;5.60;;;10.60;99.90;;;;;;5058343;28;20955;-80
2023/09/28 02:36:43;;;;;;;8.27;6.37;;;10.60;99.90;;;;;;5061900;28;20527;-80
2023/09/28 02:39:09;;;;;;;5.03;4.57;;;10.70;99.90;;;;;;5066887;28;20447;-80
2023/09/28 02:41:36;;;;;;;14.30;6.63;;;10.80;99.90;;;;;;5063412;28;20788;-80
2023/09/28 02:44:02;;;;;;;7.20;6.30;;;10.80;99.90;;;;;;5055995;28;20520;-81
2023/09/28 02:46:29;;;;;;;9.00;5.53;;;10.90;99.90;;;;;;5062350;28;20829;-81
2023/09/28 02:48:56;;;;;;;10.30;7.03;;;11.00;99.90;;;;;;5059013;28;20454;-83
2023/09/28 02:51:23;;;;;;;11.97;7.73;;;11.20;99.90;;;;;;5062944;28;20482;-82
2023/09/28 02:53:49;;;;;;;8.90;7.00;;;11.30;99.90;;;;;;5055315;28;20899;-81
2023/09/28 02:56:17;;;;;;;10.20;7.30;;;11.30;99.90;;;;;;5056843;28;20688;-81
2023/09/28 02:58:44;;;;;;;9.30;8.40;;;11.30;99.90;;;;;;5063201;28;20655;-82
2023/09/28 03:01:11;;;;;;;8.20;7.27;;;11.40;99.90;;;;;;5064573;28;20461;-81
2023/09/28 03:03:37;;;;;;;7.27;5.57;;;11.40;99.90;;;;;;5061598;28;20498;-81
2023/09/28 03:06:05;;;;;;;9.10;6.80;;;11.40;99.90;;;;;;5057006;28;20850;-81
2023/09/28 03:08:32;;;;;;;8.67;7.17;;;11.20;99.90;;;;;;5064582;28;20534;-81
2023/09/28 03:10:59;;;;;;;6.53;5.43;;;11.00;99.90;;;;;;5052282;28;20467;-82
2023/09/28 03:13:25;;;;;;;6.60;5.97;;;10.90;99.90;;;;;;5065798;28;20437;-81
2023/09/28 03:15:52;;;;;;;7.43;6.23;;;10.80;99.90;;;;;;5059357;28;20467;-84
2023/09/28 03:18:19;;;;;;;11.00;5.87;;;10.80;99.90;;;;;;5059202;28;20449;-82
2023/09/28 03:20:47;;;;;;;6.53;5.93;;;10.80;99.90;;;;;;5060383;28;20472;-81
2023/09/28 03:23:15;;;;;;;6.30;5.20;;;10.80;99.90;;;;;;5062823;28;20465;-84
2023/09/28 03:25:43;;;;;;;6.60;6.00;;;10.80;99.90;;;;;;5064880;28;20862;-80
2023/09/28 03:28:10;;;;;;;8.37;6.23;;;10.80;99.90;;;;;;5057698;28;20565;-80
2023/09/28 03:30:36;;;;;;;8.13;6.50;;;10.70;99.90;;;;;;5060241;28;20445;-82
2023/09/28 03:33:03;;;;;;;5.97;5.43;;;10.70;99.90;;;;;;5059147;28;21100;-83
2023/09/28 03:35:30;;;;;;;7.93;6.10;;;10.70;99.90;;;;;;5063959;28;20533;-80
2023/09/28 03:37:58;;;;;;;6.90;5.73;;;10.60;99.90;;;;;;5060854;28;20490;-81
2023/09/28 03:40:33;;;;;;;9.40;4.30;;;10.50;99.90;;;;;;5061059;28;21019;-84
2023/09/28 03:43:00;;;;;;;6.93;6.33;;;10.60;99.90;;;;;;5062148;28;21032;-81
2023/09/28 03:45:27;;;;;;;6.63;5.10;;;10.70;99.90;;;;;;5053946;28;20448;-82
2023/09/28 03:47:55;;;;;;;6.83;5.57;;;10.70;99.90;;;;;;5062656;28;20480;-81
2023/09/28 03:50:23;;;;;;;7.50;5.87;;;10.80;99.90;;;;;;5053464;28;20448;-82
2023/09/28 03:52:50;;;;;;;5.30;4.30;;;10.70;99.90;;;;;;5059195;28;20515;-81
2023/09/28 03:55:18;;;;;;;7.93;5.00;;;10.60;99.90;;;;;;5062434;28;20449;-81
2023/09/28 03:57:48;;;;;;;4.23;3.67;;;10.60;99.90;;;;;;5067774;28;20520;-82
2023/09/28 04:00:17;;;;;;;6.97;4.70;;;10.60;99.90;;;;;;5064874;28;20441;-80
2023/09/28 04:02:46;;;;;;;4.80;3.60;;;10.60;99.90;;;;;;5067854;28;20463;-81
2023/09/28 04:05:13;;;;;;;6.20;4.67;;;10.50;99.90;;;;;;5067077;28;20493;-81
2023/09/28 04:07:41;;;;;;;4.70;3.80;;;10.50;99.90;;;;;;5067376;28;20501;-82
2023/09/28 04:10:09;;;;;;;4.80;4.40;;;10.60;99.90;;;;;;5057488;28;20858;-81
2023/09/28 04:12:36;;;;;;;5.83;5.23;;;10.60;99.90;;;;;;5060131;28;20474;-81
2023/09/28 04:15:07;;;;;;;5.57;5.03;;;10.50;99.90;;;;;;5068986;28;20518;-81
2023/09/28 04:17:35;;;;;;;5.60;4.50;;;10.40;99.90;;;;;;5060314;28;21125;-81
2023/09/28 04:20:04;;;;;;;4.47;4.13;;;10.50;99.90;;;;;;5067716;28;20898;-83
2023/09/28 04:22:30;;;;;;;9.90;4.90;;;10.50;99.90;;;;;;5063598;28;20444;-81
2023/09/28 04:24:57;;;;;;;5.97;3.30;;;10.50;99.90;;;;;;5064773;28;20460;-84
2023/09/28 04:27:24;;;;;;;5.33;3.87;;;10.50;99.90;;;;;;5065570;28;20476;-81
2023/09/28 04:29:51;;;;;;;4.03;3.67;;;10.50;99.90;;;;;;5055575;28;20445;-81
2023/09/28 04:32:20;;;;;;;4.43;4.03;;;10.50;99.90;;;;;;5063408;28;20515;-83
2023/09/28 04:34:47;;;;;;;4.37;4.00;;;10.60;99.90;;;;;;5063815;28;20946;-81
2023/09/28 04:37:16;;;;;;;3.73;3.00;;;10.80;99.90;;;;;;5068162;28;20483;-82
2023/09/28 04:39:44;;;;;;;4.40;4.00;;;10.80;99.90;;;;;;5065539;28;20465;-81
2023/09/28 04:42:12;;;;;;;3.87;3.00;;;10.70;99.90;;;;;;5056207;28;20452;-82
2023/09/28 04:44:43;;;;;;;4.10;3.53;;;10.60;99.90;;;;;;5055331;28;20463;-81
2023/09/28 04:47:11;;;;;;;4.23;2.90;;;10.70;99.90;;;;;;5066801;28;20480;-81
2023/09/28 04:49:40;;;;;;;5.80;4.13;;;10.70;99.90;;;;;;5066086;28;20830;-84
2023/09/28 04:52:09;;;;;;;4.17;3.87;;;10.70;99.90;;;;;;5062425;28;20541;-82
2023/09/28 04:54:37;;;;;;;4.00;3.60;;;10.70;99.90;;;;;;5066105;28;20541;-82
2023/09/28 04:57:04;;;;;;;3.67;3.37;;;10.70;99.90;;;;;;5067390;28;20484;-82
2023/09/28 04:59:31;;;;;;;5.60;2.73;;;10.70;99.90;;;;;;5064678;28;20460;-84
2023/09/28 05:01:58;;;;;;;5.43;3.77;;;10.70;99.90;;;;;;5066777;28;20509;-81
2023/09/28 05:04:25;;;;;;;3.27;2.87;;;10.70;99.90;;;;;;5058838;28;20470;-82
2023/09/28 05:06:54;;;;;;;3.50;3.20;;;10.70;99.90;;;;;;5061315;28;20482;-82
2023/09/28 05:09:21;;;;;;;2.60;2.40;;;10.80;99.90;;;;;;5054267;28;20445;-85
2023/09/28 05:11:48;;;;;;;4.73;4.10;;;10.80;99.90;;;;;;5061220;28;20449;-84
2023/09/28 05:14:15;;;;;;;3.67;2.90;;;10.80;99.90;;;;;;5066063;28;20448;-84
2023/09/28 05:16:42;;;;;;;4.33;3.80;;;10.80;99.90;;;;;;5068267;28;20507;-83
2023/09/28 05:19:09;;;;;;;3.90;3.60;;;10.90;99.90;;;;;;5067522;28;20473;-82
2023/09/28 05:21:36;;;;;;;5.40;4.07;;;10.90;99.90;;;;;;5065451;28;20540;-82
2023/09/28 05:24:05;;;;;;;2.87;2.60;;;11.00;99.90;;;;;;5067862;28;21005;-81
2023/09/28 05:26:32;;;;;;;2.93;2.70;;;11.10;99.90;;;;;;5067006;28;20520;-84
2023/09/28 05:28:59;;;;;;;4.53;3.80;;;11.10;99.90;;;;;;5066824;28;20463;-80
2023/09/28 05:31:27;;;;;;;5.03;4.30;;;11.00;99.90;;;;;;5062085;28;20505;-80
2023/09/28 05:33:54;;;;;;;2.80;2.50;;;11.10;99.90;;;;;;5061369;28;20466;-80
2023/09/28 05:36:21;;;;;;;4.63;3.50;;;11.10;99.90;;;;;;5062502;28;20973;-82
2023/09/28 05:38:48;;;;;;;3.93;3.63;;;11.20;99.90;;;;;;5066060;28;20490;-84
2023/09/28 05:41:16;;;;;;;4.23;3.23;;;11.20;99.90;;;;;;5062122;28;21044;-80
2023/09/28 05:43:43;;;;;;;3.40;3.10;;;11.30;99.90;;;;;;5065660;28;20466;-81
2023/09/28 05:46:10;;;;;;;4.10;3.70;;;11.30;99.90;;;;;;5066969;28;21201;-80
2023/09/28 05:48:38;;;;;;;4.77;4.30;;;11.40;99.90;;;;;;5066909;28;20995;-80
2023/09/28 05:51:05;;;;;;;5.27;4.77;;;11.50;99.90;;;;;;5066486;28;20477;-81
2023/09/28 05:53:32;;;;;;;5.87;4.23;;;11.60;99.90;;;;;;5060636;28;20830;-80
2023/09/28 05:55:59;;;;;;;4.83;4.33;;;11.60;99.90;;;;;;5057155;28;21016;-82
2023/09/28 05:58:27;;;;;;;4.50;3.43;;;11.70;99.90;;;;;;5065786;28;20483;-80
2023/09/28 06:00:54;;;;;;;5.97;4.47;;;11.80;99.90;;;;;;5061489;28;21138;-80
2023/09/28 06:03:21;;;;;;;5.70;3.93;;;12.00;99.90;;;;;;5066450;28;20459;-83
2023/09/28 06:05:48;;;;;;;4.73;3.73;;;12.10;99.90;;;;;;5060078;28;20530;-83
2023/09/28 06:08:18;;;;;;;4.20;3.73;;;12.20;99.90;;;;;;5060509;28;20471;-80
2023/09/28 06:10:48;;;;;;;5.67;3.20;;;12.30;99.90;;;;;;5061235;28;20467;-83
2023/09/28 06:13:15;;;;;;;5.23;3.73;;;12.40;99.90;;;;;;5061769;28;20824;-83
2023/09/28 06:15:43;;;;;;;5.77;3.80;;;12.50;99.90;;;;;;5066721;28;20452;-81
2023/09/28 06:18:10;;;;;;;3.93;3.63;;;12.60;99.90;;;;;;5062966;28;20939;-81
2023/09/28 06:20:37;;;;;;;11.53;4.83;;;12.80;99.90;;;;;;5064448;28;20832;-85
2023/09/28 06:23:04;;;;;;;6.40;5.30;;;13.00;99.90;;;;;;5069726;28;20506;-80
2023/09/28 06:25:31;;;;;;;4.40;4.00;;;13.10;99.90;;;;;;5069970;28;20537;-80
2023/09/28 06:27:58;;;;;;;4.53;3.70;;;13.20;99.90;;;;;;5069502;28;20477;-79
2023/09/28 06:30:25;;;;;;;6.90;4.40;;;13.30;99.90;;;;;;5065550;28;21117;-79
2023/09/28 06:32:54;;;;;;;7.20;5.80;;;13.70;99.90;;;;;;5066095;28;20506;-79
2023/09/28 06:35:20;;;;;;;5.43;4.93;;;13.80;99.90;;;;;;5058583;28;20460;-79
2023/09/28 06:37:48;;;;;;;4.20;3.83;;;14.10;99.90;;;;;;5065942;28;20550;-79
2023/09/28 06:40:15;;;;;;;5.53;5.03;;;14.30;99.90;;;;;;5067135;28;20472;-81
2023/09/28 06:42:42;;;;;;;4.60;4.20;;;14.30;99.90;;;;;;5066517;28;20969;-79
2023/09/28 06:45:09;;;;;;;5.23;4.13;;;14.50;99.90;;;;;;5066621;28;21046;-79
2023/09/28 06:47:36;;;;;;;7.50;5.03;;;14.60;99.90;;;;;;5066028;28;20446;-79
2023/09/28 06:50:05;;;;;;;3.83;3.50;;;15.00;99.90;;;;;;5066524;28;21046;-79
2023/09/28 06:52:32;;;;;;;3.90;3.50;;;15.20;99.90;;;;;;5026686;28;20522;-81
2023/09/28 06:55:00;;;;;;;5.17;4.03;;;15.30;99.90;;;;;;5026809;28;20514;-81
2023/09/28 06:57:27;;;;;;;3.33;3.07;;;15.60;99.90;;;;;;5025670;28;20877;-80
2023/09/28 06:59:55;;;;;;;5.67;3.37;;;15.50;99.90;;;;;;5026081;28;20466;-80
2023/09/28 07:02:23;;;;;;;4.03;3.73;;;15.50;99.90;;;;;;5022843;28;20576;-80
2023/09/28 07:04:50;;;;;;;8.00;5.00;;;15.90;99.90;;;;;;5020702;28;20467;-80
2023/09/28 07:07:19;;;;;;;11.00;4.03;;;16.10;99.90;;;;;;5026771;28;20511;-80
2023/09/28 07:09:46;;;;;;;6.80;3.90;;;15.90;99.90;;;;;;5025848;28;20461;-81
2023/09/28 07:12:13;;;;;;;12.13;4.40;;;15.60;99.90;;;;;;5025017;28;20468;-79
2023/09/28 07:14:40;;;;;;;6.57;4.23;;;15.90;99.90;;;;;;5026047;28;20441;-80
2023/09/28 07:17:07;;;;;;;4.07;3.63;;;16.10;99.90;;;;;;5026134;28;20445;-79
2023/09/28 07:19:34;;;;;;;8.90;4.23;;;16.50;99.90;;;;;;5031197;28;20453;-79
2023/09/28 07:22:01;;;;;;;5.77;3.60;;;16.50;99.90;;;;;;5028559;28;20530;-82
2023/09/28 07:24:33;;;;;;;5.53;3.50;;;16.60;99.90;;;;;;5037185;28;20449;-83
2023/09/28 07:27:00;;;;;;;10.00;4.27;;;17.00;99.90;;;;;;5032863;28;20452;-80
2023/09/28 07:29:27;;;;;;;5.17;3.67;;;17.00;99.90;;;;;;5023785;28;20461;-81
2023/09/28 07:31:55;;;;;;;6.60;4.90;;;17.30;99.90;;;;;;5032033;28;20568;-79
2023/09/28 07:34:21;;;;;;;15.03;2.97;;;17.60;99.90;;;;;;5019289;28;20462;-85
2023/09/28 07:36:48;;;;;;;3.80;3.40;;;17.80;99.90;;;;;;5031486;28;20445;-80
2023/09/28 07:39:15;;;;;;;3.70;3.00;;;18.00;99.90;;;;;;5030497;28;20554;-77
2023/09/28 07:41:45;;;;;;;3.93;2.80;;;17.90;99.90;;;;;;5028806;28;20973;-82
2023/09/28 07:44:12;;;;;;;13.60;4.70;;;18.20;99.90;;;;;;5031636;28;20995;-77
2023/09/28 07:46:39;;;;;;;17.33;5.40;;;18.40;99.90;;;;;;5030110;28;20526;-77
2023/09/28 07:49:07;;;;;;;6.03;4.00;;;18.40;99.90;;;;;;5032755;28;20503;-79
2023/09/28 07:51:33;;;;;;;5.20;4.40;;;18.40;99.90;;;;;;5056174;28;20482;-79
2023/09/28 07:54:01;;;;;;;5.20;3.43;;;18.30;99.90;;;;;;5068496;28;20445;-78
2023/09/28 07:56:27;;;;;;;5.97;3.63;;;18.40;99.50;;;;;;5067398;28;20439;-78
2023/09/28 07:58:57;;;;;;;7.77;2.90;;;18.50;99.90;;;;;;5072161;28;20549;-83
2023/09/28 08:01:26;;;;;;;3.30;2.70;;;18.60;99.50;;;;;;5071234;28;20549;-75
2023/09/28 08:03:53;;;;;;;6.00;3.03;;;18.50;99.90;;;;;;5053655;28;20506;-77
2023/09/28 08:06:21;;;;;;;8.70;3.20;;;18.30;99.90;;;;;;5056629;28;20529;-78
2023/09/28 08:08:47;;;;;;;6.77;4.53;;;18.40;99.90;;;;;;5069093;28;20475;-78
2023/09/28 08:11:15;;;;;;;4.50;2.57;;;18.50;99.90;;;;;;5072169;28;20527;-78
2023/09/28 08:13:43;;;;;;;6.03;4.53;;;18.50;99.90;;;;;;5071660;28;20443;-79
2023/09/28 08:16:12;;;;;;;5.27;3.80;;;18.60;99.90;;;;;;5071214;28;21125;-81
2023/09/28 08:18:39;;;;;;;5.97;4.57;;;18.50;99.90;;;;;;5071351;28;20885;-79
2023/09/28 08:21:06;;;;;;;7.10;4.80;;;18.40;99.90;;;;;;5055170;28;20472;-79
2023/09/28 08:23:33;;;;;;;7.47;4.10;;;18.20;99.90;;;;;;5071742;28;20497;-79
2023/09/28 08:26:00;;;;;;;5.00;4.10;;;18.10;99.90;;;;;;5068158;28;20497;-79
2023/09/28 08:28:27;;;;;;;8.90;4.23;;;17.90;99.90;;;;;;5064835;28;20447;-79
2023/09/28 08:30:55;;;;;;;4.50;4.07;;;17.70;99.90;;;;;;5071624;28;21271;-79
2023/09/28 08:33:24;;;;;;;3.83;2.77;;;17.90;99.90;;;;;;5067736;28;20458;-79
2023/09/28 08:35:51;;;;;;;7.07;4.60;;;18.20;99.90;;;;;;5060664;28;20939;-79
2023/09/28 08:38:20;;;;;;;5.10;3.80;;;18.40;99.90;;;;;;5063787;28;20564;-79
2023/09/28 08:40:49;;;;;;;7.33;5.67;;;18.50;99.90;;;;;;5066843;28;20534;-80
2023/09/28 08:43:21;;;;;;;5.50;3.57;;;18.60;99.20;;;;;;5068072;28;20460;-80
2023/09/28 08:45:52;;;;;;;2.77;2.57;;;18.70;95.10;;;;;;5066185;28;20471;-77
2023/09/28 08:48:21;;;;;;;9.37;5.13;;;18.80;94.60;;;;;;5050486;28;20475;-81
2023/09/28 08:50:54;;;;;;;5.33;2.43;;;18.70;94.90;;;;;;5067050;28;20503;-80
2023/09/28 08:53:22;;;;;;;4.70;3.80;;;18.70;93.40;;;;;;5052504;28;20467;-79
2023/09/28 08:55:49;;;;;;;11.63;3.57;;;18.90;93.80;;;;;;5059148;28;20440;-79
2023/09/28 08:58:17;;;;;;;8.40;3.70;;;18.90;95.90;;;;;;5060188;28;20539;-83
2023/09/28 09:00:44;;;;;;;4.30;3.10;;;18.90;94.10;;;;;;5066550;28;20449;-79
2023/09/28 09:03:12;;;;;;;7.37;3.30;;;19.00;93.70;;;;;;5060403;28;20543;-79
2023/09/28 09:05:41;;;;;;;3.87;2.10;;;19.10;94.40;;;;;;5062955;28;20464;-80
2023/09/28 09:08:10;;;;;;;3.23;2.93;;;19.20;95.20;;;;;;5064254;28;20893;-79
2023/09/28 09:10:39;;;;;;;8.33;3.70;;;19.30;92.80;;;;;;5064686;28;20846;-78
2023/09/28 09:13:07;;;;;;;4.77;2.70;;;19.50;92.50;;;;;;5068288;28;20522;-79
2023/09/28 09:15:36;;;;;;;3.00;2.13;;;19.50;92.40;;;;;;5066631;28;20477;-78
2023/09/28 09:18:05;;;;;;;4.83;4.40;;;19.70;93.70;;;;;;5056180;28;21192;-79
2023/09/28 09:20:32;;;;;;;4.30;3.40;;;19.80;92.90;;;;;;5059819;28;20469;-77
2023/09/28 09:23:13;;;;;;;2.93;2.73;;;19.90;93.60;;;;;;5065182;28;20834;-78
2023/09/28 09:25:44;;;;;;;5.27;3.63;;;19.80;92.20;;;;;;5067258;28;20439;-80
2023/09/28 09:28:12;;;;;;;3.13;2.83;;;19.70;91.70;;;;;;5055177;28;20500;-81
2023/09/28 09:30:40;;;;;;;5.23;3.37;;;19.80;93.50;;;;;;5068771;28;20520;-79
2023/09/28 09:33:08;;;;;;;7.30;4.47;;;19.80;92.90;;;;;;5065239;28;20933;-79
2023/09/28 09:35:35;;;;;;;6.67;4.57;;;19.80;96.20;;;;;;5058455;28;20464;-79
2023/09/28 09:38:02;;;;;;;3.77;3.47;;;19.90;92.80;;;;;;5063079;28;20452;-81
2023/09/28 09:40:32;;;;;;;4.70;4.13;;;20.10;93.00;;;;;;5068355;28;20448;-78
2023/09/28 09:43:07;;;;;;;4.23;3.70;;;20.20;93.00;;;;;;5065153;28;20494;-78
2023/09/28 09:45:37;;;;;;;3.80;3.50;;;20.20;93.40;;;;;;5065133;28;20442;-84
2023/09/28 09:48:06;;;;;;;4.63;3.60;;;20.30;93.50;;;;;;5062506;28;20519;-79
2023/09/28 09:50:35;;;;;;;4.03;3.47;;;20.30;94.20;;;;;;5064115;28;20567;-78
2023/09/28 09:53:04;;;;;;;3.30;3.00;;;20.30;92.90;;;;;;5062748;28;20448;-81
2023/09/28 09:55:33;;;;;;;5.00;3.50;;;20.00;91.40;;;;;;5062109;28;20523;-78
2023/09/28 09:58:02;;;;;;;8.37;4.83;;;20.30;91.90;;;;;;5063572;28;20585;-83
2023/09/28 10:00:32;;;;;;;7.40;5.63;;;20.50;91.70;;;;;;5062143;28;20975;-80
2023/09/28 10:03:01;;;;;;;3.83;2.80;;;20.60;90.60;;;;;;5057789;28;20530;-79
2023/09/28 10:05:29;;;;;;;5.00;3.07;;;20.60;88.50;;;;;;5056883;28;20839;-83
2023/09/28 10:07:57;;;;;;;5.63;2.50;;;20.70;88.30;;;;;;5064548;28;20440;-81
2023/09/28 10:10:27;;;;;;;4.47;3.17;;;20.70;87.80;;;;;;5062652;28;20524;-78
2023/09/28 10:12:57;;;;;;;4.97;2.53;;;20.60;79.50;;;;;;5063380;28;20464;-79
2023/09/28 10:15:25;;;;;;;5.07;3.17;;;20.70;80.80;;;;;;5067763;28;20474;-79
2023/09/28 10:17:53;;;;;;;6.33;3.20;;;20.70;76.60;;;;;;5067563;28;20440;-77
2023/09/28 10:20:20;;;;;;;8.73;3.47;;;20.70;74.80;;;;;;5067204;28;20490;-79
2023/09/28 10:22:48;;;;;;;3.40;3.07;;;20.90;75.20;;;;;;5066308;28;20501;-80
2023/09/28 10:25:17;;;;;;;5.13;2.67;;;21.10;83.20;;;;;;5067156;28;20519;-78
2023/09/28 10:27:45;;;;;;;3.50;3.20;;;21.00;84.10;;;;;;5066395;28;20451;-78
2023/09/28 10:30:21;;;;;;;2.07;1.90;;;21.10;80.10;;;;;;5067206;28;20520;-81
2023/09/28 10:32:51;;;;;;;3.37;2.20;;;21.10;75.80;;;;;;5066373;28;20448;-81
2023/09/28 10:35:27;;;;;;;4.30;2.53;;;21.30;75.00;;;;;;5067404;28;20541;-79
2023/09/28 10:38:31;;;;;;;3.63;2.67;;;21.30;78.90;;;;;;5065071;28;20574;-78
2023/09/28 10:41:06;;;;;;;6.20;2.77;;;21.40;77.30;;;;;;5060988;28;20523;-79
2023/09/28 10:43:35;;;;;;;8.03;2.83;;;21.60;79.90;;;;;;5067256;28;20455;-78
2023/09/28 10:46:04;;;;;;;5.73;3.33;;;21.60;78.50;;;;;;5067237;28;20440;-80
2023/09/28 10:48:40;;;;;;;4.30;2.50;;;21.50;74.10;;;;;;5066301;28;20943;-78
2023/09/28 10:51:12;;;;;;;5.03;2.93;;;21.50;73.00;;;;;;5063306;28;20807;-77
2023/09/28 10:53:39;;;;;;;3.40;3.10;;;21.60;73.30;;;;;;5065417;28;20539;-81
2023/09/28 10:56:07;;;;;;;2.60;2.40;;;21.80;72.70;;;;;;5066326;28;20526;-78
2023/09/28 10:58:35;;;;;;;4.50;3.63;;;21.90;68.80;;;;;;5066552;28;20530;-80
2023/09/28 11:01:06;;;;;;;3.33;2.97;;;22.00;73.30;;;;;;5065210;28;20933;-81
2023/09/28 11:03:33;;;;;;;4.53;3.60;;;22.20;71.10;;;;;;5066432;28;20462;-78
2023/09/28 11:06:02;;;;;;;19.17;4.00;;;22.10;73.30;;;;;;5059170;28;21002;-78
2023/09/28 11:08:30;;;;;;;7.43;3.43;;;22.10;74.50;;;;;;5066719;28;20514;-79
2023/09/28 11:10:58;;;;;;;4.03;3.63;;;21.90;74.20;;;;;;5063600;28;21047;-78
2023/09/28 11:13:26;;;;;;;4.40;4.10;;;22.00;75.70;;;;;;5066128;28;20848;-78
2023/09/28 11:15:53;;;;;;;3.93;3.13;;;21.90;78.40;;;;;;5060887;28;20909;-79
2023/09/28 11:18:23;;;;;;;3.87;3.37;;;22.10;76.80;;;;;;5065277;28;20443;-78
2023/09/28 11:20:51;;;;;;;5.43;3.23;;;22.00;75.70;;;;;;5062329;28;20536;-78
2023/09/28 11:23:19;;;;;;;6.30;5.47;;;22.00;75.60;;;;;;5066298;28;20444;-78
2023/09/28 11:25:46;;;;;;;4.80;4.20;;;22.10;77.70;;;;;;5061070;28;20470;-81
2023/09/28 11:28:14;;;;;;;4.67;3.87;;;22.20;76.80;;;;;;5064777;28;20849;-82
2023/09/28 11:30:42;;;;;;;5.73;2.80;;;22.50;78.30;;;;;;5065759;28;20448;-79
2023/09/28 11:33:08;;;;;;;3.73;3.27;;;22.60;83.30;;;;;;5065654;28;20440;-80
2023/09/28 11:35:38;;;;;;;5.30;2.40;;;22.60;76.80;;;;;;5062233;28;20467;-79
2023/09/28 11:38:09;;;;;;;4.67;3.30;;;22.80;75.40;;;;;;5062149;28;20460;-78
2023/09/28 11:40:37;;;;;;;4.27;3.30;;;22.90;76.40;;;;;;5062632;28;20993;-79
2023/09/28 11:43:05;;;;;;;3.87;2.77;;;22.80;74.10;;;;;;5053452;28;20460;-83
2023/09/28 11:45:35;;;;;;;5.27;3.50;;;22.70;75.10;;;;;;5063600;28;20523;-78
2023/09/28 11:48:05;;;;;;;3.93;3.33;;;22.70;75.80;;;;;;5051739;28;20456;-78
2023/09/28 11:50:33;;;;;;;4.40;3.43;;;22.60;75.00;;;;;;5057331;28;21065;-79
2023/09/28 11:53:02;;;;;;;5.17;3.70;;;22.90;76.10;;;;;;5052503;28;21067;-77
2023/09/28 11:55:29;;;;;;;5.70;3.87;;;23.00;76.40;;;;;;5057011;28;20456;-78
2023/09/28 11:57:59;;;;;;;3.83;2.93;;;23.10;77.30;;;;;;5054427;28;20522;-79
2023/09/28 12:00:26;;;;;;;4.30;3.30;;;23.00;73.30;;;;;;5052733;28;20500;-82
2023/09/28 12:02:53;;;;;;;3.87;3.30;;;23.00;70.40;;;;;;5053629;28;20527;-80
2023/09/28 12:05:21;;;;;;;3.37;3.07;;;23.00;73.00;;;;;;5058204;28;20472;-78
2023/09/28 12:07:48;;;;;;;3.63;3.20;;;23.10;71.80;;;;;;5056921;28;20458;-78
2023/09/28 12:10:17;;;;;;;4.30;3.30;;;23.20;71.40;;;;;;5061789;28;20528;-78
2023/09/28 12:12:46;;;;;;;3.57;2.27;;;23.20;69.60;;;;;;5063045;28;20461;-81
2023/09/28 12:15:14;;;;;;;2.63;2.43;;;23.20;72.20;;;;;;5069530;28;20476;-78
2023/09/28 12:17:42;;;;;;;4.97;3.60;;;23.10;72.70;;;;;;5052864;28;20437;-79
2023/09/28 12:20:12;;;;;;;3.80;3.50;;;23.20;71.30;;;;;;5067149;28;20489;-81
2023/09/28 12:22:40;;;;;;;4.10;3.80;;;23.20;69.30;;;;;;5057766;28;21761;-79
2023/09/28 12:25:09;;;;;;;5.80;2.80;;;23.30;72.30;;;;;;5067858;28;20455;-77
2023/09/28 12:27:38;;;;;;;4.20;2.30;;;23.40;69.90;;;;;;5059576;28;20455;-77
2023/09/28 12:30:07;;;;;;;2.80;2.60;;;23.30;70.70;;;;;;5059751;28;20517;-81
2023/09/28 12:32:33;;;;;;;4.50;1.97;;;23.50;76.50;;;;;;5063993;28;20452;-77
2023/09/28 12:35:01;;;;;;;3.03;2.20;;;23.80;75.50;;;;;;5059547;28;20510;-78
2023/09/28 12:37:28;;;;;;;2.07;1.33;;;23.90;74.90;;;;;;5064346;28;20444;-77
2023/09/28 12:39:55;;;;;;;2.60;2.30;;;23.90;71.70;;;;;;5059092;28;20534;-80
2023/09/28 12:42:24;;;;;;;2.43;1.80;;;23.80;71.30;;;;;;5059139;28;20473;-77
2023/09/28 12:44:52;;;;;;;2.70;2.43;;;23.90;71.00;;;;;;5063866;28;20462;-78
2023/09/28 12:47:20;;;;;;;6.80;2.60;;;23.80;72.70;;;;;;5066007;28;20548;-76
2023/09/28 12:49:47;;;;;;;2.03;1.83;;;23.90;72.50;;;;;;5062506;28;20504;-78